Villanueva, New Mexico
Current Conditions -  °F | °C
As of 12:53 AM on Saturday 29 Nov 2014 (Local Time) from KCQC Reporting Station
Clear Clear  
Wind Chill: 26°   Ceiling: Unl
Heat Index: 35°   Visibility: 10mi
Dew Point: 16°   Wind: 13mph
Humidity: 46%   Direction: 260°W
Pressure: 30.06"   Gusts: NA
Location:  35.27°N, 105.36°W
Report Text: KCQC 290753Z AUTO 26011KT 10SM CLR 02/M09 A3006 RMK AO2 SLP124 T00171089
Loading
Personal Weather Stations






























Interactive Weather Map New forecast layout! Learn more

10-Day Weather Forecast

Advertisements
Track Severe Weather on mobile